createdAt,value
2023-06-16T00:00:11.508Z,10.90
2023-06-16T00:02:45.313Z,10.87
2023-06-16T00:05:17.929Z,10.65
2023-06-16T00:07:49.800Z,10.58
2023-06-16T00:10:19.739Z,10.51
2023-06-16T00:12:49.547Z,10.36
2023-06-16T00:15:19.268Z,10.43
2023-06-16T00:17:51.284Z,10.49
2023-06-16T00:20:25.532Z,10.43
2023-06-16T00:22:56.168Z,10.40
2023-06-16T00:25:25.922Z,10.46
2023-06-16T00:27:55.544Z,10.38
2023-06-16T00:30:25.295Z,10.32
2023-06-16T00:32:54.979Z,10.45
2023-06-16T00:35:27.194Z,10.41
2023-06-16T00:37:56.781Z,10.30
2023-06-16T00:40:26.560Z,10.19
2023-06-16T00:42:59.821Z,10.21
2023-06-16T00:45:29.440Z,10.13
2023-06-16T00:47:59.638Z,10.14
2023-06-16T00:50:32.484Z,10.09
2023-06-16T00:53:03.023Z,10.07
2023-06-16T00:55:33.275Z,10.08
2023-06-16T00:58:04.067Z,10.08
2023-06-16T01:00:37.375Z,10.03
2023-06-16T01:03:10.269Z,9.98
2023-06-16T01:05:43.238Z,9.96
2023-06-16T01:08:19.042Z,9.97
2023-06-16T01:10:56.347Z,9.97
2023-06-16T01:13:29.842Z,9.88
2023-06-16T01:16:02.038Z,9.88
2023-06-16T01:18:33.324Z,9.80
2023-06-16T01:21:17.646Z,9.75
2023-06-16T01:24:03.588Z,9.73
2023-06-16T01:26:35.572Z,9.70
2023-06-16T01:29:09.679Z,9.74
2023-06-16T01:31:42.712Z,9.73
2023-06-16T01:34:15.176Z,9.85
2023-06-16T01:36:46.820Z,9.81
2023-06-16T01:39:20.391Z,9.80
2023-06-16T01:41:52.191Z,9.67
2023-06-16T01:44:22.560Z,9.77
2023-06-16T01:46:52.622Z,9.85
2023-06-16T01:49:22.970Z,10.03
2023-06-16T01:51:52.798Z,10.09
2023-06-16T01:54:25.030Z,10.24
2023-06-16T01:56:54.643Z,10.21
2023-06-16T01:59:24.281Z,10.14
2023-06-16T02:01:56.632Z,10.09
2023-06-16T02:04:28.097Z,10.04
2023-06-16T02:07:03.975Z,9.95
2023-06-16T02:09:38.634Z,9.96
2023-06-16T02:12:10.784Z,9.95
2023-06-16T02:14:40.611Z,9.88
2023-06-16T02:17:14.227Z,9.83
2023-06-16T02:19:44.528Z,9.86
2023-06-16T02:22:14.332Z,9.85
2023-06-16T02:24:46.829Z,9.91
2023-06-16T02:27:16.784Z,9.94
2023-06-16T02:29:47.647Z,9.85
2023-06-16T02:32:17.275Z,9.91
2023-06-16T02:34:48.032Z,9.90
2023-06-16T02:37:17.672Z,9.84
2023-06-16T02:39:50.251Z,9.82
2023-06-16T02:42:19.866Z,9.77
2023-06-16T02:44:49.445Z,9.76
2023-06-16T02:47:19.237Z,9.75
2023-06-16T02:49:50.164Z,9.72
2023-06-16T02:52:19.772Z,9.74
2023-06-16T02:54:51.943Z,9.76
2023-06-16T02:57:21.554Z,9.80
2023-06-16T02:59:51.400Z,9.82
2023-06-16T03:02:21.112Z,9.83
2023-06-16T03:04:50.770Z,9.89
2023-06-16T03:07:20.487Z,9.97
2023-06-16T03:09:52.749Z,10.17
2023-06-16T03:12:22.368Z,10.33
2023-06-16T03:14:51.998Z,10.71
2023-06-16T03:17:22.859Z,11.46
2023-06-16T03:19:52.627Z,12.28
2023-06-16T03:22:22.345Z,12.86
2023-06-16T03:24:55.050Z,13.50
2023-06-16T03:27:24.714Z,13.97
2023-06-16T03:29:54.348Z,14.10
2023-06-16T03:32:24.002Z,13.26
2023-06-16T03:34:54.620Z,13.68
2023-06-16T03:37:24.680Z,14.93
2023-06-16T03:39:57.188Z,15.76
2023-06-16T03:42:26.855Z,16.55
2023-06-16T03:44:56.504Z,17.24
2023-06-16T03:47:26.316Z,17.74
2023-06-16T03:49:56.022Z,18.54
2023-06-16T03:52:27.087Z,19.03
2023-06-16T03:54:59.361Z,19.40
2023-06-16T03:57:29.004Z,20.29
2023-06-16T03:59:58.640Z,21.26
2023-06-16T04:02:28.364Z,22.06
2023-06-16T04:04:58.399Z,22.72
2023-06-16T04:07:27.984Z,23.46
2023-06-16T04:10:00.391Z,23.44
2023-06-16T04:12:30.003Z,23.93
2023-06-16T04:14:59.619Z,24.36
2023-06-16T04:17:29.271Z,23.80
2023-06-16T04:19:58.876Z,22.89
2023-06-16T04:22:28.507Z,24.53
2023-06-16T04:25:00.791Z,24.21
2023-06-16T04:27:33.507Z,25.61
2023-06-16T04:30:06.545Z,25.02
2023-06-16T04:32:36.554Z,26.02
2023-06-16T04:35:07.657Z,26.88
2023-06-16T04:37:37.437Z,26.93
2023-06-16T04:40:11.910Z,25.72
2023-06-16T04:42:41.575Z,28.25
2023-06-16T04:45:12.099Z,28.39
2023-06-16T04:47:42.976Z,28.51
2023-06-16T04:50:13.725Z,27.11
2023-06-16T04:52:43.736Z,27.02
2023-06-16T04:55:17.865Z,27.67
2023-06-16T04:57:47.894Z,27.73
2023-06-16T05:00:19.482Z,28.06
2023-06-16T05:02:49.400Z,28.67
2023-06-16T05:05:19.271Z,28.94
2023-06-16T05:07:48.914Z,29.50
2023-06-16T05:10:21.474Z,26.69
2023-06-16T05:12:52.380Z,28.23
2023-06-16T05:15:22.026Z,29.47
2023-06-16T05:17:51.812Z,31.17
2023-06-16T05:20:21.750Z,29.70
2023-06-16T05:22:51.395Z,28.78
2023-06-16T05:25:23.730Z,28.67
2023-06-16T05:27:53.353Z,31.00
2023-06-16T05:30:23.043Z,30.80
2023-06-16T05:32:52.738Z,32.04
2023-06-16T05:35:22.463Z,30.32
2023-06-16T05:37:52.489Z,29.22
2023-06-16T05:40:24.699Z,28.77
2023-06-16T05:42:54.339Z,29.58
2023-06-16T05:45:24.282Z,31.20
2023-06-16T05:47:53.958Z,32.51
2023-06-16T05:50:23.806Z,33.34
2023-06-16T05:52:53.493Z,31.21
2023-06-16T05:55:25.916Z,31.68
2023-06-16T05:57:55.588Z,27.50
2023-06-16T06:00:25.354Z,29.00
2023-06-16T06:02:55.067Z,28.76
2023-06-16T06:05:25.686Z,28.90
2023-06-16T06:07:55.284Z,29.97
2023-06-16T06:10:27.719Z,29.84
2023-06-16T06:12:58.478Z,30.40
2023-06-16T06:15:28.116Z,30.21
2023-06-16T06:17:57.902Z,31.63
2023-06-16T06:20:27.489Z,29.22
2023-06-16T06:22:57.089Z,28.86
2023-06-16T06:25:29.578Z,29.64
2023-06-16T06:27:59.403Z,29.97
2023-06-16T06:30:30.145Z,30.98
2023-06-16T06:33:01.475Z,32.00
2023-06-16T06:35:31.211Z,29.29
2023-06-16T06:38:01.819Z,28.10
2023-06-16T06:40:34.007Z,27.93
2023-06-16T06:43:03.693Z,27.61
2023-06-16T06:45:33.306Z,28.60
2023-06-16T07:09:37.665Z,25.17
2023-06-16T07:12:08.481Z,25.17
2023-06-16T07:14:38.481Z,26.24
2023-06-16T07:17:08.870Z,27.05
2023-06-16T07:19:38.489Z,25.83
2023-06-16T07:22:08.489Z,26.99
2023-06-16T07:24:40.959Z,26.79
2023-06-16T07:27:13.344Z,27.96
2023-06-16T07:29:43.052Z,27.69
2023-06-16T07:32:12.752Z,28.91
2023-06-16T07:34:43.117Z,28.07
2023-06-16T07:37:13.619Z,27.07
2023-06-16T07:39:45.790Z,26.37
2023-06-16T07:42:16.997Z,26.13
2023-06-16T07:44:46.684Z,25.11
2023-06-16T07:47:16.232Z,25.91
2023-06-16T07:49:46.432Z,25.68
2023-06-16T07:52:17.836Z,24.90
2023-06-16T07:54:50.275Z,21.13
2023-06-16T07:57:19.861Z,20.01
2023-06-16T07:59:49.462Z,21.64
2023-06-16T08:02:19.088Z,22.62
2023-06-16T08:04:49.209Z,23.33
2023-06-16T08:07:19.163Z,22.69
2023-06-16T08:09:51.406Z,22.22
2023-06-16T08:12:21.459Z,22.57
2023-06-16T08:14:51.285Z,23.15
2023-06-16T08:17:21.014Z,22.76
2023-06-16T08:19:51.208Z,23.25
2023-06-16T08:22:20.832Z,23.27
2023-06-16T08:24:53.089Z,23.15
2023-06-16T08:27:22.743Z,23.18
2023-06-16T08:29:52.410Z,23.14
2023-06-16T08:32:22.099Z,24.22
2023-06-16T08:34:52.242Z,23.92
2023-06-16T08:37:30.614Z,23.54
2023-06-16T08:40:08.581Z,23.37
2023-06-16T08:42:40.815Z,22.32
2023-06-16T08:45:12.060Z,23.66
2023-06-16T08:47:44.315Z,24.16
2023-06-16T08:50:14.446Z,24.15
2023-06-16T08:52:46.138Z,23.97
2023-06-16T08:55:19.000Z,24.77
2023-06-16T08:57:50.849Z,25.99
2023-06-16T09:00:23.322Z,26.32
2023-06-16T09:02:55.261Z,26.73
2023-06-16T09:05:25.076Z,27.46
2023-06-16T09:07:54.849Z,26.89
2023-06-16T09:10:27.057Z,26.25
2023-06-16T09:12:57.480Z,26.51
2023-06-16T09:18:02.060Z,26.03
2023-06-16T09:20:32.583Z,26.47
2023-06-16T09:23:05.760Z,26.89
2023-06-16T09:25:39.593Z,27.69
2023-06-16T09:28:11.601Z,26.96
2023-06-16T09:30:43.989Z,27.07
2023-06-16T09:33:15.204Z,28.55
2023-06-16T09:35:46.689Z,27.00
2023-06-16T09:38:16.769Z,26.80
2023-06-16T09:40:49.463Z,25.40
2023-06-16T09:43:19.375Z,25.99
2023-06-16T09:45:49.110Z,27.35
2023-06-16T09:48:18.714Z,28.41
2023-06-16T09:50:48.325Z,28.74
2023-06-16T09:53:20.395Z,30.17
2023-06-16T09:55:54.365Z,30.85
2023-06-16T09:58:33.569Z,30.82
2023-06-16T10:01:14.597Z,29.54
2023-06-16T10:03:45.451Z,28.01
2023-06-16T10:06:19.930Z,29.57
2023-06-16T10:08:51.235Z,27.34
2023-06-16T10:11:24.945Z,27.13
2023-06-16T10:13:58.324Z,28.02
2023-06-16T10:16:29.566Z,28.23
2023-06-16T10:19:04.220Z,28.16
2023-06-16T10:21:34.433Z,28.33
2023-06-16T10:24:06.191Z,28.72
2023-06-16T10:26:38.865Z,29.52
2023-06-16T10:29:09.034Z,29.06
2023-06-16T10:31:40.795Z,28.39
2023-06-16T10:34:10.397Z,27.94
2023-06-16T10:36:40.091Z,27.67
2023-06-16T10:39:13.417Z,26.28
2023-06-16T11:09:59.810Z,26.30
2023-06-16T11:12:29.814Z,25.82
2023-06-16T11:14:59.794Z,25.35
2023-06-16T11:17:29.495Z,24.63
2023-06-16T11:20:00.298Z,25.25
2023-06-16T11:22:39.101Z,26.03
2023-06-16T11:25:09.839Z,25.67
2023-06-16T11:27:41.242Z,25.84
2023-06-16T11:30:11.708Z,25.85
2023-06-16T11:32:42.077Z,25.60
2023-06-16T11:35:12.716Z,26.01
2023-06-16T11:37:51.339Z,26.35
2023-06-16T11:40:24.087Z,26.73
2023-06-16T11:42:59.046Z,26.49
2023-06-16T11:45:31.061Z,27.41
2023-06-16T11:48:03.355Z,27.82
2023-06-16T11:50:33.436Z,28.80
2023-06-16T11:53:05.961Z,30.06
2023-06-16T11:55:35.854Z,29.30
2023-06-16T11:58:05.657Z,27.63
2023-06-16T12:00:35.792Z,28.23
2023-06-16T12:03:06.221Z,27.38
2023-06-16T12:05:38.092Z,26.51
2023-06-16T12:08:10.260Z,24.59
2023-06-16T12:10:40.004Z,23.58
2023-06-16T12:13:12.480Z,23.14
2023-06-16T12:15:42.186Z,22.80
2023-06-16T12:18:11.905Z,22.39
2023-06-16T12:20:43.832Z,22.26
2023-06-16T12:23:16.948Z,22.17
2023-06-16T12:25:46.557Z,21.69
2023-06-16T12:28:22.615Z,21.97
2023-06-16T12:30:52.197Z,21.71
2023-06-16T12:33:21.824Z,21.74
2023-06-16T12:35:51.483Z,22.01
2023-06-16T12:38:35.982Z,22.31
2023-06-16T12:41:05.545Z,22.47
2023-06-16T12:43:37.085Z,22.41
2023-06-16T12:46:06.908Z,22.29
2023-06-16T12:48:36.539Z,22.36
2023-06-16T12:51:06.238Z,22.42
2023-06-16T12:53:45.225Z,22.91
2023-06-16T12:56:16.044Z,23.66
2023-06-16T12:58:45.947Z,23.86
2023-06-16T13:01:16.217Z,23.86
2023-06-16T13:03:48.664Z,24.46
2023-06-16T13:06:20.453Z,24.60
2023-06-16T13:08:52.730Z,24.68
2023-06-16T13:11:22.300Z,25.27
2023-06-16T13:13:51.888Z,26.07
2023-06-16T13:16:21.616Z,26.53
2023-06-16T13:18:51.394Z,26.67
2023-06-16T13:21:21.611Z,25.13
2023-06-16T13:23:53.991Z,23.89
2023-06-16T13:26:24.529Z,24.43
2023-06-16T13:28:54.163Z,25.03
2023-06-16T13:31:23.930Z,24.31
2023-06-16T13:33:53.693Z,23.89
2023-06-16T13:36:23.564Z,22.52
2023-06-16T13:38:56.543Z,22.23
2023-06-16T13:41:28.508Z,21.99
2023-06-16T13:43:58.178Z,21.76
2023-06-16T13:46:27.827Z,21.35
2023-06-16T13:48:57.515Z,21.52
2023-06-16T13:51:27.163Z,21.86
2023-06-16T13:53:59.349Z,21.73
2023-06-16T13:56:29.211Z,22.26
2023-06-16T13:58:58.936Z,22.07
2023-06-16T14:01:29.119Z,22.70
2023-06-16T14:03:58.873Z,22.71
2023-06-16T14:06:28.873Z,22.74
2023-06-16T14:09:01.075Z,22.64
2023-06-16T14:11:30.732Z,22.68
2023-06-16T14:14:00.390Z,23.22
2023-06-16T14:16:30.165Z,22.83
2023-06-16T14:19:01.304Z,22.82
2023-06-16T14:21:32.545Z,22.98
2023-06-16T14:24:04.790Z,23.79
2023-06-16T14:26:34.417Z,24.32
2023-06-16T14:29:04.028Z,23.86
2023-06-16T14:31:33.736Z,23.22
2023-06-16T14:34:03.418Z,23.10
2023-06-16T14:36:33.098Z,23.37
2023-06-16T14:39:06.700Z,23.17
2023-06-16T14:41:38.386Z,23.16
2023-06-16T14:44:08.372Z,23.43
2023-06-16T14:46:38.053Z,23.69
2023-06-16T14:49:07.696Z,23.41
2023-06-16T14:51:38.416Z,23.83
2023-06-16T14:54:10.678Z,24.03
2023-06-16T14:56:40.980Z,24.35
2023-06-16T14:59:10.726Z,24.71
2023-06-16T15:01:40.344Z,24.65
2023-06-16T15:04:10.159Z,24.56
2023-06-16T15:06:40.712Z,24.95
2023-06-16T15:09:13.685Z,23.38
2023-06-16T15:11:45.033Z,22.71
2023-06-16T15:14:15.846Z,22.70
2023-06-16T15:16:45.445Z,22.34
2023-06-16T15:19:15.128Z,22.51
2023-06-16T15:21:44.699Z,22.49
2023-06-16T15:24:16.922Z,22.75
2023-06-16T15:26:46.817Z,22.72
2023-06-16T15:29:20.591Z,22.58
2023-06-16T15:31:54.628Z,22.46
2023-06-16T15:34:24.910Z,22.40
2023-06-16T15:36:54.761Z,22.33
2023-06-16T15:39:27.036Z,21.95
2023-06-16T15:41:57.084Z,21.61
2023-06-16T15:44:26.686Z,21.01
2023-06-16T15:46:56.282Z,21.06
2023-06-16T15:49:25.989Z,21.03
2023-06-16T15:51:57.940Z,20.98
2023-06-16T15:54:30.097Z,20.42
2023-06-16T15:57:01.194Z,20.30
2023-06-16T15:59:30.889Z,20.07
2023-06-16T16:02:00.764Z,20.77
2023-06-16T16:04:31.364Z,20.84
2023-06-16T16:07:01.850Z,20.73
2023-06-16T16:09:34.149Z,20.60
2023-06-16T16:12:03.907Z,20.56
2023-06-16T16:14:33.536Z,20.39
2023-06-16T16:17:03.208Z,20.38
2023-06-16T16:19:32.882Z,20.55
2023-06-16T16:22:02.438Z,20.58
2023-06-16T16:24:34.731Z,20.58
2023-06-16T16:27:04.797Z,20.62
2023-06-16T16:29:35.620Z,20.69
2023-06-16T16:32:05.570Z,20.74
2023-06-16T16:34:35.259Z,20.89
2023-06-16T16:37:05.190Z,21.12
2023-06-16T16:39:37.586Z,20.87
2023-06-16T16:42:07.623Z,20.73
2023-06-16T16:44:37.273Z,20.62
2023-06-16T16:47:07.667Z,20.64
2023-06-16T16:49:37.253Z,20.50
2023-06-16T16:52:07.493Z,20.38
2023-06-16T16:54:39.824Z,20.19
2023-06-16T16:57:09.898Z,20.12
2023-06-16T16:59:39.542Z,20.11
2023-06-16T17:02:10.117Z,20.16
2023-06-16T17:04:39.846Z,20.12
2023-06-16T17:07:09.958Z,20.04
2023-06-16T17:09:42.229Z,19.91
2023-06-16T17:12:12.966Z,19.76
2023-06-16T17:14:42.515Z,19.68
2023-06-16T17:17:12.155Z,19.61
2023-06-16T17:19:41.744Z,19.35
2023-06-16T17:22:11.441Z,19.42
2023-06-16T17:24:43.632Z,19.35
2023-06-16T17:27:13.348Z,19.23
2023-06-16T17:29:43.114Z,19.20
2023-06-16T17:32:12.732Z,19.11
2023-06-16T17:34:42.724Z,18.90
2023-06-16T17:37:12.384Z,18.64
2023-06-16T17:39:44.640Z,18.32
2023-06-16T17:42:14.608Z,18.20
2023-06-16T17:44:46.166Z,18.15
2023-06-16T17:47:15.869Z,18.13
2023-06-16T17:49:45.568Z,17.91
2023-06-16T17:52:15.176Z,17.80
2023-06-16T17:54:47.364Z,17.65
2023-06-16T17:57:16.977Z,17.53
2023-06-16T17:59:46.811Z,17.39
2023-06-16T18:02:16.739Z,17.30
2023-06-16T18:04:47.058Z,17.19
2023-06-16T18:07:16.702Z,17.09
2023-06-16T18:09:49.173Z,17.00
2023-06-16T18:12:18.904Z,16.94
2023-06-16T18:14:48.577Z,16.87
2023-06-16T18:17:18.323Z,16.82
2023-06-16T18:19:48.481Z,16.80
2023-06-16T18:22:18.130Z,16.78
2023-06-16T18:24:50.560Z,16.76
2023-06-16T18:27:20.226Z,16.64
2023-06-16T18:29:52.617Z,16.62
2023-06-16T18:32:22.696Z,16.58
2023-06-16T18:34:52.355Z,16.49
2023-06-16T18:37:22.016Z,16.46
2023-06-16T18:39:54.199Z,16.40
2023-06-16T18:42:24.482Z,16.36
2023-06-16T18:44:54.291Z,16.29
2023-06-16T18:47:24.137Z,16.22
2023-06-16T18:49:56.121Z,16.11
2023-06-16T18:52:26.732Z,16.03
2023-06-16T18:54:59.759Z,15.95
2023-06-16T18:57:29.538Z,15.89
2023-06-16T18:59:59.278Z,15.79
2023-06-16T19:02:29.224Z,15.72
2023-06-16T19:04:59.087Z,15.66
2023-06-16T19:07:28.934Z,15.59
2023-06-16T19:10:01.110Z,15.53
2023-06-16T19:12:30.898Z,15.46
2023-06-16T19:15:00.548Z,15.38
2023-06-16T19:17:30.288Z,15.33
2023-06-16T19:19:59.973Z,15.28
2023-06-16T19:22:29.606Z,15.26
2023-06-16T19:25:02.753Z,15.12
2023-06-16T19:27:32.349Z,15.00
2023-06-16T19:30:02.123Z,14.95
2023-06-16T19:32:32.441Z,14.90
2023-06-16T19:35:02.090Z,14.86
2023-06-16T19:37:34.387Z,14.78
2023-06-16T19:40:09.371Z,14.79
2023-06-16T19:42:39.047Z,14.81
2023-06-16T19:45:10.224Z,14.71
2023-06-16T19:47:39.883Z,14.64
2023-06-16T19:50:10.857Z,14.55
2023-06-16T19:52:42.243Z,14.55
2023-06-16T19:55:15.876Z,14.49
2023-06-16T19:57:45.429Z,14.41
2023-06-16T20:00:16.127Z,14.33
2023-06-16T20:02:45.974Z,14.27
2023-06-16T20:05:19.687Z,14.18
2023-06-16T20:07:49.454Z,14.09
2023-06-16T20:10:21.814Z,14.02
2023-06-16T20:12:51.595Z,13.98
2023-06-16T20:15:21.375Z,13.92
2023-06-16T20:17:51.091Z,13.86
2023-06-16T20:20:21.944Z,13.83
2023-06-16T20:22:51.726Z,13.79
2023-06-16T20:25:23.998Z,13.78
2023-06-16T20:27:56.149Z,13.76
2023-06-16T20:30:25.931Z,13.77
2023-06-16T20:32:57.724Z,13.72
2023-06-16T20:35:28.202Z,13.68
2023-06-16T20:37:57.988Z,13.65
2023-06-16T20:40:30.260Z,13.56
2023-06-16T20:43:00.037Z,13.51
2023-06-16T20:45:29.701Z,13.46
2023-06-16T20:47:59.851Z,13.39
2023-06-16T20:50:31.537Z,13.35
2023-06-16T20:53:01.301Z,13.32
2023-06-16T20:55:33.544Z,13.40
2023-06-16T20:58:03.376Z,13.34
2023-06-16T21:00:34.026Z,13.35
2023-06-16T21:03:05.663Z,13.34
2023-06-16T21:05:35.617Z,13.31
2023-06-16T21:08:06.304Z,13.31
2023-06-16T21:10:38.642Z,13.29
2023-06-16T21:13:08.743Z,13.24
2023-06-16T21:15:38.385Z,13.21
2023-06-16T21:18:08.204Z,13.19
2023-06-16T21:20:37.841Z,13.18
2023-06-16T21:23:07.448Z,13.19
2023-06-16T21:25:39.743Z,13.21
2023-06-16T21:28:09.519Z,13.21
2023-06-16T21:30:39.687Z,13.21
2023-06-16T21:33:09.540Z,13.26
2023-06-16T21:35:39.268Z,13.26
2023-06-16T21:38:11.542Z,13.24
2023-06-16T21:40:44.261Z,13.20
2023-06-16T21:43:13.863Z,13.16
2023-06-16T21:45:45.677Z,13.14
2023-06-16T21:48:15.355Z,13.12
2023-06-16T21:50:45.017Z,13.17
2023-06-16T21:53:14.603Z,13.16
2023-06-16T21:55:46.807Z,13.13
2023-06-16T21:58:18.589Z,13.12
2023-06-16T22:00:48.222Z,13.07
2023-06-16T22:03:21.086Z,13.01
2023-06-16T22:05:51.099Z,12.93
2023-06-16T22:08:22.304Z,12.84
2023-06-16T22:10:54.568Z,12.79
2023-06-16T22:13:27.195Z,12.75
2023-06-16T22:15:59.262Z,12.69
2023-06-16T22:18:30.711Z,12.63
2023-06-16T22:21:01.597Z,12.57
2023-06-16T22:23:31.261Z,12.54
2023-06-16T22:26:05.248Z,12.54
2023-06-16T22:28:35.947Z,12.52
2023-06-16T22:31:06.456Z,12.45
2023-06-16T22:33:36.456Z,12.43
2023-06-16T22:36:06.244Z,12.46
2023-06-16T22:38:35.896Z,12.45
2023-06-16T22:41:08.393Z,12.44
2023-06-16T22:43:38.061Z,12.44
2023-06-16T22:46:07.776Z,12.43
2023-06-16T22:48:37.419Z,12.40
2023-06-16T22:51:07.102Z,12.39
2023-06-16T22:53:36.705Z,12.41
2023-06-16T22:56:09.202Z,12.41
2023-06-16T22:58:38.879Z,12.40
2023-06-16T23:01:08.575Z,12.40
2023-06-16T23:03:38.646Z,12.39
2023-06-16T23:06:08.481Z,12.39
2023-06-16T23:08:38.203Z,12.40
2023-06-16T23:11:10.364Z,12.39
2023-06-16T23:13:39.949Z,12.37
2023-06-16T23:16:10.177Z,12.36
2023-06-16T23:18:39.798Z,12.32
2023-06-16T23:21:09.580Z,12.28
2023-06-16T23:23:39.250Z,12.31
2023-06-16T23:26:14.930Z,12.29
2023-06-16T23:28:44.894Z,12.25
2023-06-16T23:31:15.950Z,12.27
2023-06-16T23:33:47.008Z,12.27
2023-06-16T23:36:18.227Z,12.23
2023-06-16T23:38:50.013Z,12.17
2023-06-16T23:41:22.366Z,12.10
2023-06-16T23:43:54.805Z,12.09
2023-06-16T23:46:24.490Z,12.08
2023-06-16T23:48:54.162Z,12.00
2023-06-16T23:51:23.767Z,11.95
2023-06-16T23:53:53.371Z,11.89
2023-06-16T23:56:25.578Z,11.89
2023-06-16T23:58:55.349Z,11.86
